Crittenden, Kentucky
Current Conditions -  °F | °C
As of 10:27 AM on Wednesday 26 Nov 2014 (Local Time) from KCVG Reporting Station
Haze Haze  
Wind Chill: 25°   Ceiling: 1000
Heat Index: 32°   Visibility: 6mi
Dew Point: 25°   Wind: 8mph
Humidity: 75%   Direction: 40°NE
Pressure: 30.13"   Gusts: NA
Location:  38.78°N, 84.61°W
Report Text: KCVG 261527Z 04007KT 6SM HZ BKN010 OVC026 00/M04 A3013 RMK AO2
Loading
Personal Weather Stations






























Interactive Weather Map New forecast layout! Learn more

10-Day Weather Forecast

Advertisements
Track Severe Weather on mobile